createdAt,value
2023-05-25T00:01:01.745Z,12.32
2023-05-25T00:06:05.637Z,11.32
2023-05-25T00:11:07.400Z,16.50
2023-05-25T00:16:09.206Z,10.18
2023-05-25T00:21:11.887Z,13.23
2023-05-25T00:26:14.091Z,13.20
2023-05-25T00:31:15.908Z,12.98
2023-05-25T00:36:18.094Z,10.60
2023-05-25T00:41:20.926Z,12.48
2023-05-25T00:46:23.647Z,14.50
2023-05-25T00:51:27.153Z,13.15
2023-05-25T00:56:32.550Z,12.18
2023-05-25T01:01:40.731Z,18.25
2023-05-25T01:06:47.936Z,14.77
2023-05-25T01:11:51.610Z,15.73
2023-05-25T01:16:55.222Z,15.07
2023-05-25T01:22:20.098Z,14.00
2023-05-25T01:27:30.709Z,16.52
2023-05-25T01:32:35.323Z,15.05
2023-05-25T01:37:39.707Z,17.30
2023-05-25T01:42:42.352Z,16.42
2023-05-25T01:48:16.030Z,19.58
2023-05-25T01:53:36.829Z,16.10
2023-05-25T01:58:50.783Z,15.18
2023-05-25T02:03:53.294Z,30.50
2023-05-25T02:08:55.120Z,24.48
2023-05-25T02:13:56.936Z,17.27
2023-05-25T02:18:58.718Z,12.35
2023-05-25T02:24:00.723Z,18.23
2023-05-25T02:29:03.396Z,16.25
2023-05-25T02:34:05.174Z,15.93
2023-05-25T02:39:06.980Z,19.45
2023-05-25T02:44:08.861Z,19.35
2023-05-25T02:49:10.817Z,15.57
2023-05-25T02:54:12.907Z,16.75
2023-05-25T02:59:14.797Z,17.23
2023-05-25T03:04:16.657Z,19.52
2023-05-25T03:09:18.543Z,16.80
2023-05-25T03:14:22.793Z,17.02
2023-05-25T03:19:32.352Z,18.10
2023-05-25T03:24:34.597Z,17.95
2023-05-25T03:29:38.400Z,14.88
2023-05-25T03:34:40.854Z,12.65
2023-05-25T03:39:44.844Z,18.92
2023-05-25T03:44:46.723Z,17.27
2023-05-25T03:49:48.544Z,18.02
2023-05-25T03:54:50.629Z,19.20
2023-05-25T03:59:52.361Z,16.48
2023-05-25T04:04:54.285Z,16.58
2023-05-25T04:09:59.517Z,20.38
2023-05-25T04:15:03.567Z,20.13
2023-05-25T04:20:09.031Z,18.98
2023-05-25T04:25:11.618Z,20.05
2023-05-25T04:30:13.618Z,18.00
2023-05-25T04:35:26.832Z,17.43
2023-05-25T04:40:28.930Z,18.00
2023-05-25T04:45:33.200Z,17.33
2023-05-25T04:50:37.575Z,13.88
2023-05-25T05:00:42.261Z,15.82
2023-05-25T05:10:52.202Z,20.80
2023-05-25T05:15:54.128Z,21.17
2023-05-25T05:20:56.684Z,17.20
2023-05-25T05:25:59.495Z,18.25
2023-05-25T05:31:01.654Z,14.27
2023-05-25T05:36:04.795Z,16.17
2023-05-25T05:41:13.488Z,20.65
2023-05-25T05:46:16.805Z,16.02
2023-05-25T05:51:18.983Z,19.37
2023-05-25T05:56:21.775Z,21.67
2023-05-25T06:01:24.052Z,21.35
2023-05-25T06:11:31.662Z,17.77
2023-05-25T06:16:33.825Z,16.63
2023-05-25T06:21:36.970Z,19.80
2023-05-25T06:26:38.655Z,16.25
2023-05-25T06:31:40.638Z,22.53
2023-05-25T06:36:42.524Z,17.17
2023-05-25T06:41:45.272Z,15.55
2023-05-25T06:46:51.052Z,14.75
2023-05-25T06:51:52.779Z,14.45
2023-05-25T06:56:54.743Z,20.83
2023-05-25T07:01:56.581Z,19.13
2023-05-25T07:06:58.645Z,14.85
2023-05-25T07:12:01.143Z,15.50
2023-05-25T07:17:03.026Z,18.38
2023-05-25T07:22:05.358Z,20.27
2023-05-25T07:27:08.207Z,15.55
2023-05-25T07:37:11.763Z,16.52
2023-05-25T07:42:14.019Z,18.23
2023-05-25T07:47:16.137Z,16.50
2023-05-25T07:52:18.992Z,15.53
2023-05-25T07:57:20.875Z,14.27
2023-05-25T08:02:22.982Z,15.25
2023-05-25T08:07:25.572Z,19.80
2023-05-25T08:12:43.031Z,15.57
2023-05-25T08:17:50.977Z,20.20
2023-05-25T08:22:53.718Z,15.43
2023-05-25T08:27:56.022Z,18.58
2023-05-25T08:32:57.775Z,18.63
2023-05-25T08:37:59.513Z,20.80
2023-05-25T08:43:01.579Z,16.37
2023-05-25T08:48:09.477Z,14.30
2023-05-25T08:53:13.538Z,14.00
2023-05-25T08:58:22.151Z,17.70
2023-05-25T09:03:24.700Z,15.52
2023-05-25T09:08:27.274Z,12.88
2023-05-25T09:18:31.320Z,15.80
2023-05-25T09:23:35.500Z,12.60
2023-05-25T09:28:45.674Z,14.20
2023-05-25T09:33:47.605Z,11.93
2023-05-25T09:38:49.704Z,13.40
2023-05-25T09:44:02.040Z,19.67
2023-05-25T09:49:09.324Z,14.75
2023-05-25T09:54:11.500Z,11.95
2023-05-25T09:59:13.230Z,10.85
2023-05-25T10:04:16.423Z,14.20
2023-05-25T10:09:19.573Z,11.65
2023-05-25T10:14:28.049Z,13.38
2023-05-25T10:19:57.296Z,15.10
2023-05-25T10:25:14.245Z,13.75
2023-05-25T10:30:17.224Z,10.98
2023-05-25T10:40:22.867Z,12.82
2023-05-25T10:45:24.981Z,9.95
2023-05-25T10:50:28.754Z,13.80
2023-05-25T10:55:43.415Z,13.10
2023-05-25T11:01:12.218Z,13.60
2023-05-25T11:06:15.906Z,10.48
2023-05-25T11:11:18.959Z,11.15
2023-05-25T11:16:37.708Z,8.23
2023-05-25T11:21:44.050Z,12.52
2023-05-25T11:26:57.880Z,13.40
2023-05-25T11:32:00.680Z,10.10
2023-05-25T11:37:02.544Z,12.07
2023-05-25T11:42:07.199Z,10.00
2023-05-25T11:47:13.394Z,15.30
2023-05-25T11:52:17.291Z,9.23
2023-05-25T11:57:22.549Z,12.82
2023-05-25T12:02:24.508Z,12.82
2023-05-25T12:07:31.298Z,11.10
2023-05-25T12:12:42.304Z,9.02
2023-05-25T12:17:45.449Z,10.35
2023-05-25T12:22:47.865Z,12.95
2023-05-25T12:27:49.741Z,10.90
2023-05-25T12:33:00.949Z,11.53
2023-05-25T12:38:12.056Z,9.38
2023-05-25T12:43:15.297Z,10.55
2023-05-25T12:48:26.248Z,10.40
2023-05-25T12:53:29.026Z,11.82
2023-05-25T12:58:30.936Z,11.43
2023-05-25T13:03:33.100Z,14.23
2023-05-25T13:08:35.015Z,8.20
2023-05-25T13:13:37.373Z,9.37
2023-05-25T13:18:39.222Z,10.15
2023-05-25T13:23:41.005Z,12.97
2023-05-25T13:28:42.776Z,15.40
2023-05-25T13:33:44.448Z,10.17
2023-05-25T13:38:46.624Z,13.97
2023-05-25T13:43:48.834Z,19.73
2023-05-25T13:48:50.604Z,10.00
2023-05-25T13:53:53.555Z,13.35
2023-05-25T13:58:56.528Z,13.70
2023-05-25T14:03:59.871Z,10.67
2023-05-25T14:09:01.761Z,10.60
2023-05-25T14:14:09.594Z,12.43
2023-05-25T14:19:18.416Z,8.80
2023-05-25T14:24:20.353Z,14.47
2023-05-25T14:29:22.043Z,9.37
2023-05-25T14:34:24.094Z,12.43
2023-05-25T14:39:26.577Z,9.18
2023-05-25T14:49:30.351Z,12.55
2023-05-25T14:54:32.018Z,9.20
2023-05-25T14:59:33.860Z,9.30
2023-05-25T15:04:35.618Z,9.43
2023-05-25T15:09:37.437Z,10.90
2023-05-25T15:14:40.815Z,8.33
2023-05-25T15:19:42.564Z,9.43
2023-05-25T15:24:44.540Z,9.52
2023-05-25T15:29:47.056Z,9.73
2023-05-25T15:34:49.118Z,10.68
2023-05-25T15:39:51.164Z,9.83
2023-05-25T15:44:53.414Z,12.05
2023-05-25T15:49:55.227Z,10.73
2023-05-25T15:54:57.189Z,9.07
2023-05-25T15:59:59.035Z,9.48
2023-05-25T16:05:00.836Z,8.50
2023-05-25T16:10:03.110Z,10.43
2023-05-25T16:15:05.352Z,10.75
2023-05-25T16:20:08.024Z,13.77
2023-05-25T16:25:10.701Z,10.50
2023-05-25T16:30:13.526Z,10.30
2023-05-25T16:35:16.070Z,12.23
2023-05-25T16:40:17.822Z,10.90
2023-05-25T16:45:21.012Z,10.33
2023-05-25T16:50:22.831Z,10.75
2023-05-25T16:55:24.973Z,11.10
2023-05-25T17:00:26.739Z,11.07
2023-05-25T17:05:28.452Z,11.90
2023-05-25T17:10:30.149Z,11.50
2023-05-25T17:15:31.979Z,10.10
2023-05-25T17:20:33.857Z,9.13
2023-05-25T17:25:35.755Z,11.80
2023-05-25T17:30:37.641Z,11.65
2023-05-25T17:35:39.323Z,11.23
2023-05-25T17:40:41.159Z,9.90
2023-05-25T17:45:43.087Z,13.13
2023-05-25T17:55:47.167Z,10.20
2023-05-25T18:00:49.152Z,12.37
2023-05-25T18:10:53.266Z,11.63
2023-05-25T18:15:55.430Z,10.50
2023-05-25T18:20:57.262Z,10.48
2023-05-25T18:25:59.155Z,8.70
2023-05-25T18:31:00.978Z,10.37
2023-05-25T18:36:02.820Z,9.20
2023-05-25T18:41:04.602Z,9.67
2023-05-25T18:46:06.945Z,10.73
2023-05-25T18:51:08.848Z,10.43
2023-05-25T18:56:11.027Z,12.32
2023-05-25T19:01:12.970Z,13.50
2023-05-25T19:06:14.900Z,11.20
2023-05-25T19:11:20.038Z,10.85
2023-05-25T19:16:25.733Z,11.48
2023-05-25T19:21:37.298Z,15.23
2023-05-25T19:26:49.967Z,12.07
2023-05-25T19:31:53.511Z,11.43
2023-05-25T19:37:10.173Z,13.63
2023-05-25T19:42:14.387Z,13.23
2023-05-25T19:47:16.386Z,12.27
2023-05-25T19:52:18.411Z,13.13
2023-05-25T19:57:22.019Z,11.73
2023-05-25T20:02:23.841Z,14.57
2023-05-25T20:07:25.655Z,13.73
2023-05-25T20:12:27.387Z,12.32
2023-05-25T20:17:29.861Z,12.35
2023-05-25T20:22:32.989Z,12.20
2023-05-25T20:27:35.087Z,10.23
2023-05-25T20:32:37.097Z,11.02
2023-05-25T20:37:39.675Z,10.35
2023-05-25T20:42:41.607Z,10.00
2023-05-25T20:47:43.928Z,13.90
2023-05-25T20:52:45.695Z,9.25
2023-05-25T20:57:47.466Z,13.10
2023-05-25T21:02:49.464Z,9.10
2023-05-25T21:07:51.826Z,12.07
2023-05-25T21:12:53.535Z,12.70
2023-05-25T21:17:55.839Z,11.27
2023-05-25T21:22:57.734Z,12.38
2023-05-25T21:27:59.467Z,12.55
2023-05-25T21:33:01.634Z,11.47
2023-05-25T21:38:03.898Z,9.15
2023-05-25T21:43:06.543Z,10.95
2023-05-25T21:48:08.617Z,11.65
2023-05-25T21:53:10.961Z,9.68
2023-05-25T21:58:14.252Z,8.83
2023-05-25T22:03:16.793Z,9.27
2023-05-25T22:08:18.571Z,9.97
2023-05-25T22:13:21.214Z,9.88
2023-05-25T22:18:22.983Z,10.57
2023-05-25T22:23:26.473Z,9.43
2023-05-25T22:28:28.613Z,10.70
2023-05-25T22:33:30.620Z,9.80
2023-05-25T22:38:32.843Z,10.35
2023-05-25T22:43:34.624Z,8.73
2023-05-25T22:48:36.389Z,9.65
2023-05-25T22:53:38.156Z,9.77
2023-05-25T22:58:39.905Z,9.90
2023-05-25T23:03:41.922Z,9.65
2023-05-25T23:08:44.095Z,11.37
2023-05-25T23:13:45.821Z,11.00
2023-05-25T23:18:47.989Z,10.13
2023-05-25T23:23:49.724Z,10.48
2023-05-25T23:28:51.591Z,10.68
2023-05-25T23:33:53.392Z,11.90
2023-05-25T23:38:55.182Z,10.05
2023-05-25T23:43:57.668Z,10.25
2023-05-25T23:48:59.601Z,12.00
2023-05-25T23:54:01.361Z,11.13
2023-05-25T23:59:04.110Z,10.83
